Time;durP1;ratioP1;P1;durP2;ratioP2;P2;SDS_P1;SDS_P2;PMS_P1;PMS_P2;Temp;Humidity;BMP_temperature;BMP_pressure;BME280_temperature;BME280_humidity;BME280_pressure;Samples;Min_cycle;Max_cycle;Signal;HPM_P1;HPM_P2
2022/01/28 00:01:08;;;;;;;14.38;3.45;;;4.20;99.90;;;;;;5134170;27;20054;-75
2022/01/28 00:03:36;;;;;;;15.63;3.33;;;4.20;99.90;;;;;;5141425;27;20191;-75
2022/01/28 00:06:03;;;;;;;13.45;3.05;;;4.20;99.90;;;;;;5131973;28;20044;-74
2022/01/28 00:08:29;;;;;;;13.57;3.42;;;4.20;99.90;;;;;;5150309;27;20042;-75
2022/01/28 00:10:55;;;;;;;16.60;3.72;;;4.40;99.90;;;;;;5154426;27;20041;-75
2022/01/28 00:37:07;;;;;;;13.05;3.40;;;4.40;99.90;;;;;;5118342;27;20062;-75
2022/01/28 00:39:34;;;;;;;10.07;2.88;;;4.30;99.90;;;;;;5116982;28;20043;-75
2022/01/28 00:42:00;;;;;;;11.50;2.65;;;4.30;99.90;;;;;;5116812;27;20397;-74
2022/01/28 00:44:25;;;;;;;13.88;3.40;;;4.30;99.90;;;;;;5157403;27;20092;-75
2022/01/28 00:46:51;;;;;;;15.23;2.85;;;4.30;99.90;;;;;;5158051;27;20537;-75
2022/01/28 00:49:17;;;;;;;11.60;3.22;;;4.30;99.90;;;;;;5137339;27;20496;-74
2022/01/28 00:51:44;;;;;;;12.38;2.80;;;4.30;99.90;;;;;;5137286;27;20403;-75
2022/01/28 00:54:09;;;;;;;10.10;2.83;;;4.20;99.90;;;;;;5135447;27;20043;-74
2022/01/28 00:56:35;;;;;;;13.50;2.85;;;4.30;99.90;;;;;;5137275;27;20049;-75
2022/01/28 00:59:01;;;;;;;12.98;3.55;;;4.20;99.90;;;;;;5152946;27;20061;-75
2022/01/28 01:01:30;;;;;;;11.10;3.20;;;4.20;99.90;;;;;;5157163;27;20051;-75
2022/01/28 01:03:59;;;;;;;11.60;3.35;;;4.20;99.90;;;;;;5156505;27;20050;-75
2022/01/28 01:06:26;;;;;;;11.13;3.17;;;4.20;99.90;;;;;;5144245;27;20095;-75
2022/01/28 01:08:51;;;;;;;14.65;3.47;;;4.20;99.90;;;;;;5136424;27;20484;-75
2022/01/28 01:11:20;;;;;;;10.52;2.90;;;4.20;99.90;;;;;;5145064;27;20057;-75
2022/01/28 01:13:47;;;;;;;9.15;2.85;;;4.20;99.90;;;;;;5147093;27;20051;-76
2022/01/28 01:16:16;;;;;;;11.60;2.97;;;4.30;99.90;;;;;;5136150;27;20424;-75
2022/01/28 01:21:16;;;;;;;11.35;2.65;;;4.40;99.90;;;;;;5156552;27;20466;-74
2022/01/28 01:23:50;;;;;;;12.32;3.22;;;4.30;99.90;;;;;;5151028;27;20043;-75
2022/01/28 01:26:16;;;;;;;10.05;2.70;;;4.40;99.90;;;;;;5136047;27;20058;-75
2022/01/28 01:28:42;;;;;;;14.43;3.80;;;4.20;99.90;;;;;;5137459;27;20032;-75
2022/01/28 01:31:16;;;;;;;10.80;2.67;;;4.20;99.90;;;;;;5136174;27;20616;-71
2022/01/28 01:33:51;;;;;;;12.73;3.03;;;4.20;99.90;;;;;;5143314;27;20038;-75
2022/01/28 01:36:17;;;;;;;16.10;3.42;;;4.10;99.90;;;;;;5145928;27;20051;-74
2022/01/28 01:38:43;;;;;;;12.48;3.42;;;4.20;99.90;;;;;;5136206;27;20047;-75
2022/01/28 01:41:15;;;;;;;17.40;3.63;;;4.10;99.90;;;;;;5141263;27;20118;-72
2022/01/28 01:43:55;;;;;;;12.85;2.92;;;4.10;99.90;;;;;;5157281;27;20082;-75
2022/01/28 01:52:05;;;;;;;16.58;3.85;;;4.00;99.90;;;;;;5137028;27;20100;-74
2022/01/28 01:54:39;;;;;;;18.80;3.60;;;4.00;99.90;;;;;;5135472;27;20050;-74
2022/01/28 01:57:07;;;;;;;14.27;3.88;;;4.00;99.90;;;;;;5154488;27;20050;-75
2022/01/28 01:59:33;;;;;;;14.63;3.83;;;4.00;99.90;;;;;;5156018;27;20070;-74
2022/01/28 02:01:59;;;;;;;13.15;3.35;;;4.00;99.90;;;;;;5147043;27;20105;-74
2022/01/28 02:04:25;;;;;;;11.90;3.40;;;4.10;99.90;;;;;;5155771;27;20399;-74
2022/01/28 02:06:52;;;;;;;15.93;3.90;;;4.10;99.90;;;;;;5140386;27;20114;-75
2022/01/28 02:09:18;;;;;;;14.75;3.80;;;4.20;99.90;;;;;;5134690;27;20472;-74
2022/01/28 02:11:44;;;;;;;15.82;3.75;;;4.20;99.90;;;;;;5149297;27;20046;-75
2022/01/28 02:14:10;;;;;;;15.90;4.47;;;4.30;99.90;;;;;;5137571;27;20076;-75
2022/01/28 02:16:36;;;;;;;14.00;3.90;;;4.30;99.90;;;;;;5147345;27;20509;-74
2022/01/28 02:19:03;;;;;;;14.65;3.30;;;4.30;99.90;;;;;;5156293;27;20490;-75
2022/01/28 02:21:44;;;;;;;12.15;3.55;;;4.30;99.90;;;;;;5144300;27;20047;-75
2022/01/28 02:24:11;;;;;;;11.32;3.15;;;4.30;99.90;;;;;;5135637;27;20043;-75
2022/01/28 02:26:38;;;;;;;13.23;3.20;;;4.40;99.90;;;;;;5144417;27;20053;-75
2022/01/28 02:29:13;;;;;;;10.07;2.88;;;4.40;99.90;;;;;;5140470;27;20051;-74
2022/01/28 02:31:41;;;;;;;11.52;3.22;;;4.50;99.90;;;;;;5145732;27;20103;-75
2022/01/28 02:34:10;;;;;;;13.75;3.50;;;4.50;99.90;;;;;;5156128;27;20043;-75
2022/01/28 02:36:36;;;;;;;16.95;3.60;;;4.60;99.90;;;;;;5144731;27;20114;-74
2022/01/28 02:39:03;;;;;;;16.20;3.30;;;4.60;99.90;;;;;;5150740;27;20122;-75
2022/01/28 02:41:34;;;;;;;11.70;3.13;;;4.60;99.90;;;;;;5146180;27;20185;-74
2022/01/28 02:44:23;;;;;;;18.30;3.75;;;4.60;99.90;;;;;;5135201;27;20039;-75
2022/01/28 02:47:01;;;;;;;15.95;3.08;;;4.60;99.90;;;;;;5145331;27;20096;-75
2022/01/28 02:49:33;;;;;;;13.07;3.53;;;4.60;99.90;;;;;;5152083;27;20031;-75
2022/01/28 02:51:59;;;;;;;11.65;2.83;;;4.70;99.90;;;;;;5143505;27;20082;-75
2022/01/28 02:54:25;;;;;;;16.17;3.33;;;4.60;99.90;;;;;;5134212;27;20043;-74
2022/01/28 02:56:53;;;;;;;11.77;3.42;;;4.60;99.90;;;;;;5139551;27;20039;-75
2022/01/28 02:59:19;;;;;;;10.27;2.92;;;4.60;99.90;;;;;;5148020;27;20043;-72
2022/01/28 03:01:45;;;;;;;13.07;3.28;;;4.70;99.90;;;;;;5155084;27;20471;-75
2022/01/28 03:04:23;;;;;;;10.13;3.20;;;4.70;99.90;;;;;;5143431;27;20066;-75
2022/01/28 03:06:48;;;;;;;13.23;3.45;;;4.70;99.90;;;;;;5134818;27;20050;-75
2022/01/28 03:09:19;;;;;;;15.48;4.13;;;4.70;99.90;;;;;;5146166;27;20042;-75
2022/01/28 03:11:49;;;;;;;14.50;3.60;;;4.70;99.90;;;;;;5155064;27;20046;-75
2022/01/28 03:14:19;;;;;;;13.25;3.58;;;4.70;99.90;;;;;;5122524;27;20099;-75
2022/01/28 03:17:11;;;;;;;12.77;3.10;;;4.70;99.90;;;;;;5113281;28;20480;-75
2022/01/28 03:19:51;;;;;;;13.38;3.45;;;4.80;99.90;;;;;;5141294;27;20502;-75
2022/01/28 03:22:17;;;;;;;12.98;3.33;;;4.70;99.90;;;;;;5154260;27;20058;-75
2022/01/28 03:24:47;;;;;;;15.02;3.58;;;4.70;99.90;;;;;;5139739;27;20053;-75
2022/01/28 03:27:20;;;;;;;16.02;3.63;;;4.60;99.90;;;;;;5152177;27;20407;-75
2022/01/28 03:29:46;;;;;;;15.65;3.30;;;4.60;99.90;;;;;;5139649;27;20047;-75
2022/01/28 03:32:11;;;;;;;12.48;3.42;;;4.60;99.90;;;;;;5134094;27;20054;-75
2022/01/28 03:34:37;;;;;;;15.63;4.20;;;4.50;99.90;;;;;;5133541;27;20489;-75
2022/01/28 03:37:05;;;;;;;12.93;3.17;;;4.50;99.90;;;;;;5133945;27;20047;-76
2022/01/28 03:39:31;;;;;;;16.30;3.70;;;4.40;99.90;;;;;;5144016;27;20053;-75
2022/01/28 03:41:56;;;;;;;14.15;3.47;;;4.40;99.90;;;;;;5153503;27;20050;-75
2022/01/28 03:44:22;;;;;;;11.05;3.50;;;4.40;99.90;;;;;;5148640;27;20144;-75
2022/01/28 03:46:48;;;;;;;13.60;2.95;;;4.40;99.90;;;;;;5132055;27;20365;-75
2022/01/28 03:49:13;;;;;;;11.60;3.50;;;4.50;99.90;;;;;;5140495;27;20046;-75
2022/01/28 03:51:39;;;;;;;14.13;3.70;;;4.40;99.90;;;;;;5154064;27;20035;-75
2022/01/28 03:54:05;;;;;;;14.02;3.40;;;4.40;99.90;;;;;;5149150;27;20039;-75
2022/01/28 03:56:30;;;;;;;13.93;3.95;;;4.30;99.90;;;;;;5153831;27;20125;-75
2022/01/28 03:58:56;;;;;;;15.05;3.55;;;4.30;99.90;;;;;;5145640;27;20046;-76
2022/01/28 04:01:28;;;;;;;14.52;3.33;;;4.30;99.90;;;;;;5132738;27;20082;-75
2022/01/28 04:11:52;;;;;;;16.73;4.00;;;4.10;99.90;;;;;;5152856;27;20182;-76
2022/01/28 04:17:21;;;;;;;16.05;4.07;;;4.00;99.90;;;;;;5133688;28;20051;-75
2022/01/28 04:19:48;;;;;;;19.65;4.70;;;4.00;99.90;;;;;;5112460;28;20401;-75
2022/01/28 04:22:14;;;;;;;16.58;3.72;;;4.00;99.90;;;;;;5112916;28;20445;-75
2022/01/28 04:24:40;;;;;;;14.35;4.18;;;3.90;99.90;;;;;;5151758;27;20121;-75
2022/01/28 04:27:06;;;;;;;20.70;4.20;;;4.00;99.90;;;;;;5154128;27;20072;-75
2022/01/28 04:29:31;;;;;;;15.10;3.70;;;4.00;99.90;;;;;;5133986;27;20039;-72
2022/01/28 04:31:57;;;;;;;17.73;4.57;;;4.00;99.90;;;;;;5133303;27;20047;-76
2022/01/28 04:34:24;;;;;;;16.88;3.90;;;4.00;99.90;;;;;;5148176;27;20483;-75
2022/01/28 04:39:26;;;;;;;20.02;3.85;;;4.10;99.90;;;;;;5137920;27;20112;-75
2022/01/28 04:42:04;;;;;;;15.48;4.55;;;4.10;99.90;;;;;;5143820;27;20042;-75
2022/01/28 04:45:22;;;;;;;22.25;5.15;;;4.20;99.90;;;;;;5133487;27;20053;-76
2022/01/28 04:47:32;;;;;;;14.23;4.03;;;4.20;99.90;;;;;;5104210;28;20052;-76
2022/01/28 04:58:04;;;;;;;19.42;4.45;;;4.20;99.90;;;;;;5076708;27;20049;-76
2022/01/28 05:03:59;;;;;;;18.02;4.55;;;4.30;99.90;;;;;;5094419;28;20052;-77
2022/01/28 05:27:05;;;;;;;15.75;4.05;;;4.50;99.90;;;;;;5157120;27;20475;-76
2022/01/28 05:29:31;;;;;;;16.23;4.33;;;4.50;99.90;;;;;;5157360;27;20043;-76
2022/01/28 05:31:56;;;;;;;15.23;4.07;;;4.60;99.90;;;;;;5156951;27;20283;-75
2022/01/28 05:34:28;;;;;;;16.80;4.85;;;4.50;99.90;;;;;;5157482;27;20095;-76
2022/01/28 05:36:55;;;;;;;14.98;4.38;;;4.50;99.90;;;;;;5156989;27;20047;-76
2022/01/28 05:39:21;;;;;;;16.83;4.22;;;4.40;99.90;;;;;;5157286;27;20042;-76
2022/01/28 05:41:47;;;;;;;16.48;4.72;;;4.40;99.90;;;;;;5156784;27;20046;-76
2022/01/28 05:44:13;;;;;;;20.83;4.55;;;4.40;99.90;;;;;;5156202;27;20468;-76
2022/01/28 05:46:39;;;;;;;18.15;4.28;;;4.30;99.90;;;;;;5157128;27;20091;-76
2022/01/28 05:49:05;;;;;;;17.35;4.05;;;4.30;99.90;;;;;;5156924;27;20095;-76
2022/01/28 05:51:31;;;;;;;17.23;4.78;;;4.20;99.90;;;;;;5157136;27;20046;-75
2022/01/28 05:53:58;;;;;;;20.48;4.43;;;4.20;99.90;;;;;;5156541;27;20090;-76
2022/01/28 05:56:27;;;;;;;19.50;4.40;;;4.10;99.90;;;;;;5156717;27;20521;-76
2022/01/28 05:58:54;;;;;;;16.25;4.22;;;4.10;99.90;;;;;;5156448;27;20091;-76
2022/01/28 06:01:20;;;;;;;19.23;4.47;;;4.00;99.90;;;;;;5157377;27;20395;-76
2022/01/28 06:03:47;;;;;;;19.85;5.22;;;4.10;99.90;;;;;;5156036;27;20051;-76
2022/01/28 06:06:19;;;;;;;19.20;5.32;;;4.10;99.90;;;;;;5156852;27;20050;-76
2022/01/28 06:08:47;;;;;;;14.85;4.45;;;4.00;99.90;;;;;;5156455;27;20053;-75
2022/01/28 06:11:13;;;;;;;16.33;4.32;;;4.00;99.90;;;;;;5155463;27;20038;-75
2022/01/28 06:13:39;;;;;;;15.70;4.90;;;4.10;99.90;;;;;;5156890;27;20054;-76
2022/01/28 06:16:05;;;;;;;14.23;4.40;;;4.00;99.90;;;;;;5156120;27;20050;-75
2022/01/28 06:18:30;;;;;;;19.50;4.50;;;3.90;99.90;;;;;;5156501;27;20043;-76
2022/01/28 06:20:56;;;;;;;20.80;5.13;;;3.90;99.90;;;;;;5155027;27;20092;-76
2022/01/28 06:23:22;;;;;;;16.63;4.07;;;3.90;99.90;;;;;;5155755;27;20050;-76
2022/01/28 06:25:49;;;;;;;18.13;4.53;;;3.80;99.90;;;;;;5155496;27;20053;-76
2022/01/28 06:28:14;;;;;;;17.10;4.45;;;3.80;99.90;;;;;;5155997;27;20487;-77
2022/01/28 06:30:40;;;;;;;16.05;4.90;;;3.80;99.90;;;;;;5156204;27;20049;-77
2022/01/28 06:33:06;;;;;;;20.42;5.45;;;3.80;99.90;;;;;;5155791;27;20046;-76
2022/01/28 06:35:31;;;;;;;17.25;4.30;;;3.90;99.90;;;;;;5156187;27;20047;-77
2022/01/28 06:37:57;;;;;;;19.52;5.03;;;3.90;99.90;;;;;;5155594;27;20046;-77
2022/01/28 06:40:23;;;;;;;19.20;5.63;;;4.00;99.90;;;;;;5156381;27;20082;-77
2022/01/28 06:42:49;;;;;;;17.85;5.13;;;4.00;99.90;;;;;;5155649;27;20046;-77
2022/01/28 06:45:15;;;;;;;15.85;4.22;;;4.10;99.90;;;;;;5155952;27;20078;-77
2022/01/28 06:47:41;;;;;;;20.60;5.05;;;4.10;99.90;;;;;;5155904;27;20081;-77
2022/01/28 06:50:09;;;;;;;14.18;4.43;;;4.20;99.90;;;;;;5155487;27;20038;-77
2022/01/28 06:52:35;;;;;;;21.67;5.68;;;4.20;99.90;;;;;;5155846;27;20038;-77
2022/01/28 06:55:01;;;;;;;20.77;5.18;;;4.30;99.90;;;;;;5155314;27;20095;-77
2022/01/28 06:57:28;;;;;;;19.67;4.40;;;4.30;99.90;;;;;;5156099;27;20057;-77
2022/01/28 06:59:55;;;;;;;21.17;5.07;;;4.40;99.90;;;;;;5155378;27;20074;-76
2022/01/28 07:02:20;;;;;;;17.83;4.88;;;4.40;99.90;;;;;;5155265;27;20536;-77
2022/01/28 07:04:46;;;;;;;22.65;5.03;;;4.40;99.90;;;;;;5155750;27;20078;-78
2022/01/28 07:07:12;;;;;;;20.25;4.22;;;4.40;99.90;;;;;;5155361;27;20046;-77
2022/01/28 07:09:37;;;;;;;19.73;4.97;;;4.50;99.90;;;;;;5155363;27;20043;-77
2022/01/28 07:12:04;;;;;;;20.17;5.28;;;4.50;99.90;;;;;;5155419;27;20051;-78
2022/01/28 07:14:30;;;;;;;18.02;4.68;;;4.50;99.90;;;;;;5155504;27;20042;-78
2022/01/28 07:16:55;;;;;;;20.52;5.25;;;4.50;99.90;;;;;;5153915;27;20050;-77
2022/01/28 07:19:21;;;;;;;19.08;5.55;;;4.50;99.90;;;;;;5155334;27;20386;-78
2022/01/28 07:21:47;;;;;;;24.25;5.97;;;4.50;99.90;;;;;;5155416;27;20071;-78
2022/01/28 07:24:13;;;;;;;17.35;4.20;;;4.50;99.90;;;;;;5154791;27;20395;-78
2022/01/28 07:26:38;;;;;;;21.05;4.65;;;4.50;99.90;;;;;;5155116;27;20042;-78
2022/01/28 07:29:04;;;;;;;20.98;5.05;;;4.50;99.90;;;;;;5154263;27;20078;-77
2022/01/28 07:31:32;;;;;;;20.92;4.95;;;4.50;99.90;;;;;;5155192;27;20095;-78
2022/01/28 07:33:58;;;;;;;18.85;4.28;;;4.50;99.90;;;;;;5154650;27;20411;-77
2022/01/28 07:36:23;;;;;;;19.08;4.55;;;4.50;99.90;;;;;;5154884;27;20042;-77
2022/01/28 07:38:49;;;;;;;15.75;4.25;;;4.50;99.90;;;;;;5155040;27;20062;-78
2022/01/28 07:41:15;;;;;;;19.25;5.03;;;4.50;99.90;;;;;;5154493;27;20403;-78
2022/01/28 07:43:42;;;;;;;19.75;5.05;;;4.40;99.90;;;;;;5155319;27;20391;-76
2022/01/28 07:46:08;;;;;;;15.98;4.13;;;4.40;99.90;;;;;;5153503;27;20559;-77
2022/01/28 07:48:33;;;;;;;20.10;4.78;;;4.30;99.90;;;;;;5154796;27;20070;-77
2022/01/28 07:50:59;;;;;;;17.33;4.93;;;4.30;99.90;;;;;;5154380;27;20367;-76
2022/01/28 07:53:25;;;;;;;16.02;4.55;;;4.20;99.90;;;;;;5153616;27;20071;-77
2022/01/28 07:55:50;;;;;;;19.35;5.22;;;4.20;99.90;;;;;;5154782;27;20088;-78
2022/01/28 07:58:16;;;;;;;19.55;4.97;;;4.20;99.90;;;;;;5154300;27;20498;-77
2022/01/28 08:00:42;;;;;;;20.55;4.50;;;4.10;99.90;;;;;;5153678;27;20125;-78
2022/01/28 08:03:08;;;;;;;17.95;5.18;;;4.10;99.90;;;;;;5151906;27;20057;-76
2022/01/28 08:05:34;;;;;;;20.67;5.13;;;4.10;99.90;;;;;;5154489;27;20086;-77
2022/01/28 08:08:04;;;;;;;18.38;4.65;;;4.10;99.90;;;;;;5154220;27;20088;-76
2022/01/28 08:10:32;;;;;;;15.02;4.85;;;4.10;99.90;;;;;;5154673;27;20384;-77
2022/01/28 08:13:00;;;;;;;18.35;5.03;;;4.00;99.90;;;;;;5152662;27;20462;-71
2022/01/28 08:15:26;;;;;;;22.90;5.47;;;3.90;99.90;;;;;;5154464;27;20084;-77
2022/01/28 08:17:52;;;;;;;17.48;5.03;;;4.00;99.90;;;;;;5154435;27;20034;-77
2022/01/28 08:20:17;;;;;;;21.73;4.85;;;3.90;99.90;;;;;;5152759;27;20133;-77
2022/01/28 08:22:51;;;;;;;17.00;4.80;;;3.90;99.90;;;;;;5154485;27;20041;-80
2022/01/28 08:25:19;;;;;;;17.70;4.72;;;3.90;99.90;;;;;;5150785;27;20526;-77
2022/01/28 08:27:45;;;;;;;16.45;4.85;;;3.90;99.90;;;;;;5147753;27;20043;-78
2022/01/28 08:30:13;;;;;;;18.88;4.90;;;4.00;99.90;;;;;;5135999;27;20434;-78
2022/01/28 08:32:39;;;;;;;15.30;4.75;;;4.00;99.90;;;;;;5130196;27;20046;-79
2022/01/28 08:35:06;;;;;;;17.23;4.63;;;4.10;99.90;;;;;;5129465;27;20095;-73
2022/01/28 08:37:32;;;;;;;15.55;4.10;;;4.20;99.90;;;;;;5129388;28;20054;-80
2022/01/28 08:39:59;;;;;;;19.45;5.05;;;4.30;99.90;;;;;;5130175;28;20043;-76
2022/01/28 08:42:25;;;;;;;16.80;4.85;;;4.40;99.90;;;;;;5128576;27;20047;-76
2022/01/28 08:44:50;;;;;;;18.10;4.32;;;4.60;99.90;;;;;;5129509;28;20509;-80
2022/01/28 08:47:16;;;;;;;17.48;4.45;;;4.70;99.90;;;;;;5130774;27;20043;-80
2022/01/28 08:49:42;;;;;;;18.10;3.97;;;4.70;99.90;;;;;;5132303;27;20133;-74
2022/01/28 08:52:07;;;;;;;14.73;3.90;;;4.70;99.90;;;;;;5133858;27;20487;-80
2022/01/28 08:54:33;;;;;;;16.08;3.80;;;4.70;99.90;;;;;;5134766;27;20138;-80
2022/01/28 08:56:59;;;;;;;18.75;4.55;;;4.80;99.90;;;;;;5134197;27;20484;-78
2022/01/28 08:59:24;;;;;;;15.57;4.30;;;4.80;99.90;;;;;;5133620;27;20042;-76
2022/01/28 09:01:51;;;;;;;14.30;4.07;;;4.90;99.90;;;;;;5133954;27;20043;-79
2022/01/28 09:04:18;;;;;;;13.32;4.25;;;5.00;99.90;;;;;;5133088;27;20115;-80
2022/01/28 09:06:45;;;;;;;17.75;5.18;;;5.00;99.90;;;;;;5134220;27;20047;-75
2022/01/28 09:09:10;;;;;;;16.90;4.55;;;5.10;99.90;;;;;;5133866;27;20047;-80
2022/01/28 09:14:12;;;;;;;20.98;4.35;;;5.20;99.90;;;;;;5135327;27;20057;-80
2022/01/28 09:16:38;;;;;;;17.27;4.45;;;5.10;99.90;;;;;;5137045;27;20051;-79
2022/01/28 09:19:03;;;;;;;18.40;5.30;;;5.20;99.90;;;;;;5136612;27;20099;-79
2022/01/28 09:21:29;;;;;;;18.23;4.60;;;5.20;99.90;;;;;;5136437;27;20046;-78
2022/01/28 09:23:55;;;;;;;21.27;4.70;;;5.20;99.90;;;;;;5136572;27;20043;-78
2022/01/28 09:26:21;;;;;;;16.00;4.78;;;5.20;99.90;;;;;;5136376;27;20483;-78
2022/01/28 09:28:46;;;;;;;14.07;4.82;;;5.20;99.90;;;;;;5136842;27;20047;-78
2022/01/28 09:31:12;;;;;;;20.98;5.22;;;5.20;99.90;;;;;;5136369;27;20047;-78
2022/01/28 09:33:38;;;;;;;13.85;3.75;;;5.30;99.90;;;;;;5136642;27;20072;-79
2022/01/28 09:36:05;;;;;;;18.02;5.43;;;5.30;99.90;;;;;;5135373;27;20126;-79
2022/01/28 09:38:31;;;;;;;20.58;4.88;;;5.40;99.90;;;;;;5135490;27;20564;-78
2022/01/28 09:40:59;;;;;;;22.00;4.63;;;5.40;99.90;;;;;;5136195;27;20133;-79
2022/01/28 09:43:28;;;;;;;15.52;4.90;;;5.30;99.90;;;;;;5136158;27;20559;-78
2022/01/28 09:45:53;;;;;;;18.83;4.25;;;5.40;99.90;;;;;;5136192;27;20506;-79
2022/01/28 09:48:19;;;;;;;17.60;4.70;;;5.40;99.90;;;;;;5136036;27;20043;-79
2022/01/28 09:50:46;;;;;;;17.83;4.30;;;5.50;99.90;;;;;;5136424;27;20043;-79
2022/01/28 09:53:14;;;;;;;16.02;5.03;;;5.60;99.90;;;;;;5136024;27;20451;-78
2022/01/28 09:55:40;;;;;;;23.75;4.57;;;5.70;99.90;;;;;;5136268;27;20078;-79
2022/01/28 09:58:06;;;;;;;18.25;5.45;;;5.80;99.90;;;;;;5135178;27;20502;-79
2022/01/28 10:00:33;;;;;;;15.45;4.30;;;5.90;99.90;;;;;;5134917;27;20126;-79
2022/01/28 10:03:05;;;;;;;18.98;4.57;;;6.00;99.90;;;;;;5136115;27;20051;-78
2022/01/28 10:05:32;;;;;;;18.70;4.68;;;6.10;99.90;;;;;;5135709;27;20090;-78
2022/01/28 10:08:03;;;;;;;18.02;5.13;;;6.30;99.90;;;;;;5135963;27;20039;-78
2022/01/28 10:11:02;;;;;;;23.10;5.07;;;6.40;99.90;;;;;;5135663;27;20126;-78
2022/01/28 10:16:10;;;;;;;16.58;4.32;;;6.60;99.90;;;;;;5136059;27;20059;-78
2022/01/28 10:18:42;;;;;;;19.40;4.90;;;6.70;99.90;;;;;;5135012;27;20089;-78
2022/01/28 10:21:27;;;;;;;19.38;5.38;;;6.80;99.90;;;;;;5115245;28;20048;-78
2022/01/28 10:24:25;;;;;;;14.48;4.78;;;6.80;99.90;;;;;;5115173;28;20050;-78
2022/01/28 10:26:54;;;;;;;15.50;4.55;;;6.80;99.90;;;;;;5115308;27;20043;-79
2022/01/28 10:29:27;;;;;;;17.05;4.38;;;6.80;99.90;;;;;;5114497;28;20040;-78
2022/01/28 10:32:10;;;;;;;20.30;4.50;;;6.90;99.90;;;;;;5115371;28;20044;-78
2022/01/28 10:34:43;;;;;;;12.65;3.65;;;6.80;99.90;;;;;;5121599;27;20043;-79
2022/01/28 10:37:18;;;;;;;19.83;4.95;;;6.80;99.90;;;;;;5135336;27;20400;-79
2022/01/28 10:39:45;;;;;;;17.73;4.93;;;6.80;99.90;;;;;;5135668;27;20035;-78
2022/01/28 10:42:14;;;;;;;18.92;5.05;;;6.90;99.90;;;;;;5135360;27;20043;-79
2022/01/28 10:44:55;;;;;;;16.38;4.10;;;6.90;99.90;;;;;;5134874;27;20135;-79
2022/01/28 10:47:34;;;;;;;;;;;6.90;99.90;;;;;;5135244;27;20051;-78
2022/01/28 10:50:00;;;;;;;17.35;4.63;;;6.90;99.90;;;;;;5135244;27;19919;-79
2022/01/28 10:52:33;;;;;;;16.70;4.43;;;6.90;99.90;;;;;;5134659;27;20043;-78
2022/01/28 10:55:00;;;;;;;20.17;4.43;;;6.90;99.90;;;;;;5135061;27;20187;-79
2022/01/28 10:57:32;;;;;;;14.77;4.32;;;6.90;99.90;;;;;;5134818;27;20047;-78
2022/01/28 10:59:58;;;;;;;17.70;4.45;;;6.90;99.90;;;;;;5135029;27;20047;-78
2022/01/28 11:02:25;;;;;;;14.82;4.00;;;6.90;99.90;;;;;;5134479;27;20043;-78
2022/01/28 11:04:54;;;;;;;17.75;4.00;;;6.90;99.90;;;;;;5134314;27;20055;-79
2022/01/28 11:07:20;;;;;;;17.63;4.45;;;7.00;99.90;;;;;;5134446;27;20058;-76
2022/01/28 11:09:47;;;;;;;15.85;4.07;;;7.00;99.90;;;;;;5134330;27;20484;-78
2022/01/28 11:12:14;;;;;;;16.00;4.38;;;7.00;99.90;;;;;;5134802;27;20126;-79
2022/01/28 11:14:40;;;;;;;17.40;4.47;;;7.00;99.90;;;;;;5134270;27;20047;-79
2022/01/28 11:17:09;;;;;;;16.52;4.43;;;7.10;99.90;;;;;;5134737;27;20058;-79
2022/01/28 11:19:37;;;;;;;15.18;4.35;;;7.10;99.90;;;;;;5134177;27;20452;-79
2022/01/28 11:22:36;;;;;;;18.77;4.50;;;7.20;99.90;;;;;;5134517;27;20097;-79
2022/01/28 11:25:15;;;;;;;17.63;4.32;;;7.30;99.90;;;;;;5134637;27;20039;-79
2022/01/28 11:27:46;;;;;;;14.93;4.45;;;7.40;99.90;;;;;;5134031;27;20050;-79
2022/01/28 11:30:15;;;;;;;;;;;7.50;99.90;;;;;;5134873;27;20189;-80
2022/01/28 11:33:08;;;;;;;17.10;4.95;;;7.50;99.90;;;;;;5134059;27;19958;-79
2022/01/28 11:35:40;;;;;;;17.63;4.28;;;7.50;99.90;;;;;;5133907;27;20051;-78
2022/01/28 11:38:23;;;;;;;16.48;4.43;;;7.60;99.90;;;;;;5133308;27;20456;-79
2022/01/28 11:40:58;;;;;;;16.10;4.07;;;7.60;99.90;;;;;;5133403;27;20129;-79
2022/01/28 11:43:29;;;;;;;14.90;4.25;;;7.60;99.90;;;;;;5134342;27;20047;-80
2022/01/28 11:46:04;;;;;;;14.95;3.88;;;7.60;99.90;;;;;;5134348;27;20043;-80
2022/01/28 11:48:54;;;;;;;15.32;4.13;;;7.60;99.90;;;;;;5133877;27;20383;-79
2022/01/28 11:51:24;;;;;;;11.75;4.03;;;7.60;99.90;;;;;;5133891;27;20057;-80
2022/01/28 11:53:58;;;;;;;16.30;3.70;;;7.60;99.90;;;;;;5134312;27;20047;-80
2022/01/28 11:56:25;;;;;;;17.63;4.00;;;7.70;99.90;;;;;;5134218;27;20068;-80
2022/01/28 11:58:57;;;;;;;18.60;4.60;;;7.70;99.90;;;;;;5133801;27;20050;-79
2022/01/28 12:01:46;;;;;;;15.48;4.72;;;7.80;99.90;;;;;;5133989;27;20046;-80
2022/01/28 12:04:31;;;;;;;17.52;4.72;;;7.90;99.90;;;;;;5133514;27;20066;-80
2022/01/28 12:07:10;;;;;;;12.70;4.15;;;7.80;99.40;;;;;;5133865;27;20058;-79
2022/01/28 12:09:38;;;;;;;19.92;4.63;;;7.70;99.90;;;;;;5133649;27;20039;-79
2022/01/28 12:12:10;;;;;;;15.32;4.22;;;7.60;99.90;;;;;;5133792;27;20054;-80
2022/01/28 12:15:00;;;;;;;17.63;3.97;;;7.50;99.90;;;;;;5132425;28;20054;-80
2022/01/28 12:17:32;;;;;;;17.93;4.53;;;7.40;99.90;;;;;;5133940;27;20054;-80
2022/01/28 12:20:18;;;;;;;15.73;4.05;;;7.30;99.90;;;;;;5134135;27;20338;-80
2022/01/28 12:23:04;;;;;;;14.98;3.55;;;7.20;99.90;;;;;;5134948;27;20384;-80
2022/01/28 12:25:36;;;;;;;16.27;4.70;;;7.20;99.90;;;;;;5137497;27;20385;-79
2022/01/28 12:28:17;;;;;;;14.43;4.07;;;7.10;99.90;;;;;;5137910;27;20487;-81
2022/01/28 12:30:45;;;;;;;16.27;4.25;;;7.10;99.90;;;;;;5137428;27;20064;-80
2022/01/28 12:33:11;;;;;;;17.02;4.43;;;7.10;99.90;;;;;;5137968;27;20090;-80
2022/01/28 12:35:41;;;;;;;17.15;3.70;;;7.10;99.90;;;;;;5137590;27;20064;-80
2022/01/28 12:38:07;;;;;;;17.23;4.47;;;7.20;99.90;;;;;;5137478;27;20038;-80
2022/01/28 12:40:40;;;;;;;13.52;3.85;;;7.20;99.90;;;;;;5137453;27;20065;-79
2022/01/28 12:43:06;;;;;;;15.52;4.30;;;7.30;99.90;;;;;;5137746;27;20039;-80
2022/01/28 12:45:32;;;;;;;14.98;4.00;;;7.40;99.90;;;;;;5137415;27;20369;-71
2022/01/28 12:47:58;;;;;;;15.27;4.43;;;7.40;99.90;;;;;;5137559;27;20057;-80
2022/01/28 12:50:25;;;;;;;18.33;4.78;;;7.40;99.90;;;;;;5138101;27;20036;-80
2022/01/28 12:52:51;;;;;;;17.52;4.47;;;7.30;99.90;;;;;;5137064;27;20450;-80
2022/01/28 12:55:17;;;;;;;12.90;3.50;;;7.30;99.90;;;;;;5133578;27;20051;-80
2022/01/28 12:57:45;;;;;;;14.18;3.53;;;7.30;99.90;;;;;;5136939;27;20039;-80
2022/01/28 13:00:12;;;;;;;15.48;3.70;;;7.30;99.90;;;;;;5137361;27;20104;-80
2022/01/28 13:02:40;;;;;;;15.20;3.83;;;7.30;99.90;;;;;;5136957;27;20043;-80
2022/01/28 13:10:33;;;;;;;15.10;3.97;;;7.30;99.90;;;;;;5136210;27;20061;-81
2022/01/28 13:13:06;;;;;;;14.95;3.50;;;7.40;99.90;;;;;;5136828;27;20054;-79
2022/01/28 13:15:33;;;;;;;14.35;3.90;;;7.40;99.90;;;;;;5136801;27;20399;-82
2022/01/28 13:18:02;;;;;;;17.35;3.83;;;7.40;99.90;;;;;;5136706;27;20081;-82
2022/01/28 13:20:38;;;;;;;15.00;3.40;;;7.40;99.90;;;;;;5137059;27;20066;-82
2022/01/28 13:23:04;;;;;;;11.93;3.72;;;7.40;99.70;;;;;;5136962;27;20051;-81
2022/01/28 13:25:30;;;;;;;17.00;3.75;;;7.40;99.90;;;;;;5136617;27;20055;-82
2022/01/28 13:28:06;;;;;;;14.65;3.40;;;7.40;99.90;;;;;;5135484;27;20369;-82
2022/01/28 13:30:38;;;;;;;12.13;3.40;;;7.50;99.90;;;;;;5137093;27;20054;-82
2022/01/28 13:33:11;;;;;;;16.65;3.80;;;7.50;99.90;;;;;;5136504;27;20055;-82
2022/01/28 13:35:39;;;;;;;14.05;4.45;;;7.60;99.90;;;;;;5136811;27;20445;-83
2022/01/28 13:38:23;;;;;;;15.27;3.72;;;7.70;99.90;;;;;;5135695;27;20051;-82
2022/01/28 13:40:48;;;;;;;11.80;3.63;;;7.70;99.90;;;;;;5135944;27;20043;-82
2022/01/28 13:43:23;;;;;;;15.40;4.07;;;7.70;99.90;;;;;;5136454;27;20066;-82
2022/01/28 13:45:53;;;;;;;13.88;4.05;;;7.70;99.90;;;;;;5135978;27;20479;-82
2022/01/28 13:48:39;;;;;;;18.17;4.88;;;7.60;99.90;;;;;;5136024;27;20518;-82
2022/01/28 13:51:16;;;;;;;15.30;4.18;;;7.60;99.90;;;;;;5135898;27;20114;-82
2022/01/28 13:56:41;;;;;;;17.27;4.50;;;7.60;99.90;;;;;;5136298;27;20138;-82
2022/01/28 13:59:16;;;;;;;16.35;4.15;;;7.50;99.90;;;;;;5136376;27;20043;-82
2022/01/28 14:01:47;;;;;;;15.93;4.68;;;7.60;99.90;;;;;;5135983;27;20377;-74
2022/01/28 14:04:20;;;;;;;13.75;4.80;;;7.50;99.90;;;;;;5136239;27;20104;-82
2022/01/28 14:06:46;;;;;;;14.00;4.20;;;7.50;99.90;;;;;;5135301;27;20047;-82
2022/01/28 14:09:24;;;;;;;13.60;4.88;;;7.40;99.90;;;;;;5136087;27;20050;-82
2022/01/28 14:11:58;;;;;;;20.75;4.82;;;7.40;99.90;;;;;;5135844;27;20038;-82
2022/01/28 14:14:34;;;;;;;15.98;4.93;;;7.40;99.90;;;;;;5136153;27;20043;-82
2022/01/28 14:17:02;;;;;;;14.80;3.90;;;7.40;99.90;;;;;;5135525;27;20046;-82
2022/01/28 14:19:29;;;;;;;15.85;4.85;;;7.40;99.90;;;;;;5135819;27;20047;-82
2022/01/28 14:21:57;;;;;;;12.88;3.88;;;7.50;99.90;;;;;;5135189;27;20050;-85
2022/01/28 14:24:26;;;;;;;15.00;3.95;;;7.50;99.90;;;;;;5145814;27;20043;-84
2022/01/28 14:29:50;;;;;;;15.95;4.30;;;7.50;99.90;;;;;;5135585;27;20050;-87
2022/01/28 14:32:22;;;;;;;12.40;3.67;;;7.50;99.90;;;;;;5135457;27;20472;-87